sensor_id;sensor_type;location;lat;lon;timestamp;temperature;humidity
37356;DHT22;48747;50.250;18.848;2022-10-16T00:01:16;13.30;99.90
37356;DHT22;48747;50.250;18.848;2022-10-16T00:03:31;13.20;99.90
37356;DHT22;48747;50.250;18.848;2022-10-16T00:05:44;13.20;99.90
37356;DHT22;48747;50.250;18.848;2022-10-16T00:07:51;13.20;99.90
37356;DHT22;48747;50.250;18.848;2022-10-16T00:09:54;13.20;99.90
37356;DHT22;48747;50.250;18.848;2022-10-16T00:12:04;13.20;99.90
37356;DHT22;48747;50.250;18.848;2022-10-16T00:16:18;13.10;99.90
37356;DHT22;48747;50.250;18.848;2022-10-16T00:18:41;13.10;99.90
37356;DHT22;48747;50.250;18.848;2022-10-16T00:20:30;13.10;99.90
37356;DHT22;48747;50.250;18.848;2022-10-16T00:22:37;13.10;99.90
37356;DHT22;48747;50.250;18.848;2022-10-16T00:24:43;13.10;99.90
37356;DHT22;48747;50.250;18.848;2022-10-16T00:26:53;13.10;99.90
37356;DHT22;48747;50.250;18.848;2022-10-16T00:29:02;13.00;99.90
37356;DHT22;48747;50.250;18.848;2022-10-16T00:33:32;13.00;99.90
37356;DHT22;48747;50.250;18.848;2022-10-16T00:38:23;12.90;99.90
37356;DHT22;48747;50.250;18.848;2022-10-16T00:40:35;12.90;99.90
37356;DHT22;48747;50.250;18.848;2022-10-16T00:42:41;12.90;99.90
37356;DHT22;48747;50.250;18.848;2022-10-16T00:47:03;12.80;99.90
37356;DHT22;48747;50.250;18.848;2022-10-16T00:51:28;12.90;99.90
37356;DHT22;48747;50.250;18.848;2022-10-16T00:53:28;12.90;99.90
37356;DHT22;48747;50.250;18.848;2022-10-16T00:55:36;12.90;99.90
37356;DHT22;48747;50.250;18.848;2022-10-16T01:00:09;12.80;99.90
37356;DHT22;48747;50.250;18.848;2022-10-16T01:02:15;12.80;99.90
37356;DHT22;48747;50.250;18.848;2022-10-16T01:04:20;12.80;99.90
37356;DHT22;48747;50.250;18.848;2022-10-16T01:06:32;12.80;99.90
37356;DHT22;48747;50.250;18.848;2022-10-16T01:15:54;12.80;99.90
37356;DHT22;48747;50.250;18.848;2022-10-16T01:17:51;12.70;99.90
37356;DHT22;48747;50.250;18.848;2022-10-16T01:22:10;12.70;99.90
37356;DHT22;48747;50.250;18.848;2022-10-16T01:29:43;12.60;99.90
37356;DHT22;48747;50.250;18.848;2022-10-16T01:31:49;12.50;99.90
37356;DHT22;48747;50.250;18.848;2022-10-16T01:33:57;12.50;99.90
37356;DHT22;48747;50.250;18.848;2022-10-16T01:36:12;12.40;99.90
37356;DHT22;48747;50.250;18.848;2022-10-16T01:38:48;12.40;99.90
37356;DHT22;48747;50.250;18.848;2022-10-16T01:40:36;12.40;99.90
37356;DHT22;48747;50.250;18.848;2022-10-16T01:42:45;12.40;99.90
37356;DHT22;48747;50.250;18.848;2022-10-16T01:45:01;12.40;99.90
37356;DHT22;48747;50.250;18.848;2022-10-16T01:47:01;12.30;99.90
37356;DHT22;48747;50.250;18.848;2022-10-16T01:49:12;12.30;99.90
37356;DHT22;48747;50.250;18.848;2022-10-16T01:53:25;12.30;99.90
37356;DHT22;48747;50.250;18.848;2022-10-16T01:55:33;12.40;99.90
37356;DHT22;48747;50.250;18.848;2022-10-16T01:57:41;12.30;99.90
37356;DHT22;48747;50.250;18.848;2022-10-16T01:59:54;12.30;99.90
37356;DHT22;48747;50.250;18.848;2022-10-16T02:02:03;12.30;99.90
37356;DHT22;48747;50.250;18.848;2022-10-16T02:04:21;12.20;99.90
37356;DHT22;48747;50.250;18.848;2022-10-16T02:06:29;12.20;99.90
37356;DHT22;48747;50.250;18.848;2022-10-16T02:08:34;12.20;99.90
37356;DHT22;48747;50.250;18.848;2022-10-16T02:10:40;12.20;99.90
37356;DHT22;48747;50.250;18.848;2022-10-16T02:13:06;12.20;99.90
37356;DHT22;48747;50.250;18.848;2022-10-16T02:14:55;12.10;99.90
37356;DHT22;48747;50.250;18.848;2022-10-16T02:17:02;12.10;99.90
37356;DHT22;48747;50.250;18.848;2022-10-16T02:19:09;12.10;99.90
37356;DHT22;48747;50.250;18.848;2022-10-16T02:21:23;12.10;99.90
37356;DHT22;48747;50.250;18.848;2022-10-16T02:23:29;12.20;99.90
37356;DHT22;48747;50.250;18.848;2022-10-16T02:25:35;12.20;99.90
37356;DHT22;48747;50.250;18.848;2022-10-16T02:28:31;12.20;99.90
37356;DHT22;48747;50.250;18.848;2022-10-16T02:29:59;12.20;99.90
37356;DHT22;48747;50.250;18.848;2022-10-16T02:32:04;12.20;99.90
37356;DHT22;48747;50.250;18.848;2022-10-16T02:34:25;12.20;99.90
37356;DHT22;48747;50.250;18.848;2022-10-16T02:36:30;12.20;99.90
37356;DHT22;48747;50.250;18.848;2022-10-16T02:38:36;12.20;99.90
37356;DHT22;48747;50.250;18.848;2022-10-16T02:40:43;12.20;99.90
37356;DHT22;48747;50.250;18.848;2022-10-16T02:42:50;12.10;99.90
37356;DHT22;48747;50.250;18.848;2022-10-16T02:45:03;12.10;99.90
37356;DHT22;48747;50.250;18.848;2022-10-16T02:46:59;12.10;99.90
37356;DHT22;48747;50.250;18.848;2022-10-16T02:51:15;12.10;99.90
37356;DHT22;48747;50.250;18.848;2022-10-16T02:53:29;12.10;99.90
37356;DHT22;48747;50.250;18.848;2022-10-16T02:57:34;12.10;99.90
37356;DHT22;48747;50.250;18.848;2022-10-16T02:59:42;12.20;99.90
37356;DHT22;48747;50.250;18.848;2022-10-16T03:01:56;12.20;99.90
37356;DHT22;48747;50.250;18.848;2022-10-16T03:03:55;12.30;99.90
37356;DHT22;48747;50.250;18.848;2022-10-16T03:05:58;12.40;99.90
37356;DHT22;48747;50.250;18.848;2022-10-16T03:08:11;12.40;99.90
37356;DHT22;48747;50.250;18.848;2022-10-16T03:10:25;12.40;99.90
37356;DHT22;48747;50.250;18.848;2022-10-16T03:12:27;12.50;99.90
37356;DHT22;48747;50.250;18.848;2022-10-16T03:14:32;12.50;99.90
37356;DHT22;48747;50.250;18.848;2022-10-16T03:16:42;12.60;99.90
37356;DHT22;48747;50.250;18.848;2022-10-16T03:18:55;12.50;99.90
37356;DHT22;48747;50.250;18.848;2022-10-16T03:20:57;12.60;99.90
37356;DHT22;48747;50.250;18.848;2022-10-16T03:25:10;12.60;99.90
37356;DHT22;48747;50.250;18.848;2022-10-16T03:27:21;12.50;99.90
37356;DHT22;48747;50.250;18.848;2022-10-16T03:29:35;12.50;99.90
37356;DHT22;48747;50.250;18.848;2022-10-16T03:31:32;12.40;99.90
37356;DHT22;48747;50.250;18.848;2022-10-16T03:33:40;12.40;99.90
37356;DHT22;48747;50.250;18.848;2022-10-16T03:35:55;12.40;99.90
37356;DHT22;48747;50.250;18.848;2022-10-16T03:37:59;12.40;99.90
37356;DHT22;48747;50.250;18.848;2022-10-16T03:40:05;12.40;99.90
37356;DHT22;48747;50.250;18.848;2022-10-16T03:42:16;12.40;99.90
37356;DHT22;48747;50.250;18.848;2022-10-16T03:44:23;12.40;99.90
37356;DHT22;48747;50.250;18.848;2022-10-16T03:46:40;12.40;99.90
37356;DHT22;48747;50.250;18.848;2022-10-16T03:48:36;12.40;99.90
37356;DHT22;48747;50.250;18.848;2022-10-16T03:55:03;12.50;99.90
37356;DHT22;48747;50.250;18.848;2022-10-16T03:57:08;12.60;99.90
37356;DHT22;48747;50.250;18.848;2022-10-16T03:59:18;12.60;99.90
37356;DHT22;48747;50.250;18.848;2022-10-16T04:01:29;12.60;99.90
37356;DHT22;48747;50.250;18.848;2022-10-16T04:03:39;12.60;99.90
37356;DHT22;48747;50.250;18.848;2022-10-16T04:05:50;12.60;99.90
37356;DHT22;48747;50.250;18.848;2022-10-16T04:07:52;12.60;99.90
37356;DHT22;48747;50.250;18.848;2022-10-16T04:09:56;12.60;99.90
37356;DHT22;48747;50.250;18.848;2022-10-16T04:18:19;12.60;99.90
37356;DHT22;48747;50.250;18.848;2022-10-16T04:20:32;12.70;99.90
37356;DHT22;48747;50.250;18.848;2022-10-16T04:22:37;12.70;99.90
37356;DHT22;48747;50.250;18.848;2022-10-16T04:24:42;12.60;99.90
37356;DHT22;48747;50.250;18.848;2022-10-16T04:26:55;12.60;99.90
37356;DHT22;48747;50.250;18.848;2022-10-16T04:28:54;12.60;99.90
37356;DHT22;48747;50.250;18.848;2022-10-16T04:36:03;12.50;99.90
37356;DHT22;48747;50.250;18.848;2022-10-16T04:38:20;12.40;99.90
37356;DHT22;48747;50.250;18.848;2022-10-16T04:42:29;12.30;99.90
37356;DHT22;48747;50.250;18.848;2022-10-16T04:44:34;12.20;99.90
37356;DHT22;48747;50.250;18.848;2022-10-16T04:48:48;12.20;99.90
37356;DHT22;48747;50.250;18.848;2022-10-16T04:50:54;12.10;99.90
37356;DHT22;48747;50.250;18.848;2022-10-16T04:53:10;12.10;99.90
37356;DHT22;48747;50.250;18.848;2022-10-16T04:55:25;12.00;99.90
37356;DHT22;48747;50.250;18.848;2022-10-16T04:59:28;12.00;99.90
37356;DHT22;48747;50.250;18.848;2022-10-16T05:01:35;12.00;99.90
37356;DHT22;48747;50.250;18.848;2022-10-16T05:03:45;12.00;99.90
37356;DHT22;48747;50.250;18.848;2022-10-16T05:05:52;12.00;99.90
37356;DHT22;48747;50.250;18.848;2022-10-16T05:07:58;12.00;99.90
37356;DHT22;48747;50.250;18.848;2022-10-16T05:10:05;12.00;99.90
37356;DHT22;48747;50.250;18.848;2022-10-16T05:12:11;12.00;99.90
37356;DHT22;48747;50.250;18.848;2022-10-16T05:14:23;12.10;99.90
37356;DHT22;48747;50.250;18.848;2022-10-16T05:16:42;12.10;99.90
37356;DHT22;48747;50.250;18.848;2022-10-16T05:18:39;12.10;99.90
37356;DHT22;48747;50.250;18.848;2022-10-16T05:20:52;12.10;99.90
37356;DHT22;48747;50.250;18.848;2022-10-16T05:24:58;12.10;99.90
37356;DHT22;48747;50.250;18.848;2022-10-16T05:27:02;12.10;99.90
37356;DHT22;48747;50.250;18.848;2022-10-16T05:29:15;12.10;99.90
37356;DHT22;48747;50.250;18.848;2022-10-16T05:31:20;12.10;99.90
37356;DHT22;48747;50.250;18.848;2022-10-16T05:33:35;12.10;99.90
37356;DHT22;48747;50.250;18.848;2022-10-16T05:35:29;12.10;99.90
37356;DHT22;48747;50.250;18.848;2022-10-16T05:39:49;12.10;99.90
37356;DHT22;48747;50.250;18.848;2022-10-16T05:41:58;12.10;99.90
37356;DHT22;48747;50.250;18.848;2022-10-16T05:43:59;12.10;99.90
37356;DHT22;48747;50.250;18.848;2022-10-16T05:46:08;12.10;99.90
37356;DHT22;48747;50.250;18.848;2022-10-16T05:48:10;12.10;99.90
37356;DHT22;48747;50.250;18.848;2022-10-16T05:54:56;12.20;99.90
37356;DHT22;48747;50.250;18.848;2022-10-16T05:58:53;12.30;99.90
37356;DHT22;48747;50.250;18.848;2022-10-16T06:01:00;12.30;99.90
37356;DHT22;48747;50.250;18.848;2022-10-16T06:03:20;12.30;99.90
37356;DHT22;48747;50.250;18.848;2022-10-16T06:05:21;12.40;99.90
37356;DHT22;48747;50.250;18.848;2022-10-16T06:07:25;12.40;99.90
37356;DHT22;48747;50.250;18.848;2022-10-16T06:09:30;12.40;99.90
37356;DHT22;48747;50.250;18.848;2022-10-16T06:12:01;12.50;99.90
37356;DHT22;48747;50.250;18.848;2022-10-16T06:16:05;12.60;99.90
37356;DHT22;48747;50.250;18.848;2022-10-16T06:18:14;12.60;99.90
37356;DHT22;48747;50.250;18.848;2022-10-16T06:20:15;12.70;99.90
37356;DHT22;48747;50.250;18.848;2022-10-16T06:22:25;12.70;99.90
37356;DHT22;48747;50.250;18.848;2022-10-16T06:24:36;12.80;99.90
37356;DHT22;48747;50.250;18.848;2022-10-16T06:26:39;12.90;99.90
37356;DHT22;48747;50.250;18.848;2022-10-16T06:28:51;12.90;99.90
37356;DHT22;48747;50.250;18.848;2022-10-16T06:38:48;13.20;99.90
37356;DHT22;48747;50.250;18.848;2022-10-16T06:40:59;13.40;99.90
37356;DHT22;48747;50.250;18.848;2022-10-16T06:43:00;13.50;99.90
37356;DHT22;48747;50.250;18.848;2022-10-16T06:45:06;13.70;99.90
37356;DHT22;48747;50.250;18.848;2022-10-16T06:47:40;13.80;99.90
37356;DHT22;48747;50.250;18.848;2022-10-16T06:49:25;13.90;99.90
37356;DHT22;48747;50.250;18.848;2022-10-16T06:51:29;14.10;99.90
37356;DHT22;48747;50.250;18.848;2022-10-16T06:53:36;14.20;99.90
37356;DHT22;48747;50.250;18.848;2022-10-16T06:55:41;14.30;99.90
37356;DHT22;48747;50.250;18.848;2022-10-16T06:57:46;14.40;99.90
37356;DHT22;48747;50.250;18.848;2022-10-16T06:59:59;14.40;99.90
37356;DHT22;48747;50.250;18.848;2022-10-16T07:02:02;14.50;99.90
37356;DHT22;48747;50.250;18.848;2022-10-16T07:04:06;14.60;99.90
37356;DHT22;48747;50.250;18.848;2022-10-16T07:06:19;14.60;99.90
37356;DHT22;48747;50.250;18.848;2022-10-16T07:08:27;14.70;99.90
37356;DHT22;48747;50.250;18.848;2022-10-16T07:10:31;14.90;99.90
37356;DHT22;48747;50.250;18.848;2022-10-16T07:12:44;15.00;99.90
37356;DHT22;48747;50.250;18.848;2022-10-16T07:14:43;15.10;99.90
37356;DHT22;48747;50.250;18.848;2022-10-16T07:17:09;15.10;99.90
37356;DHT22;48747;50.250;18.848;2022-10-16T07:19:14;15.20;99.90
37356;DHT22;48747;50.250;18.848;2022-10-16T07:23:29;15.20;99.90
37356;DHT22;48747;50.250;18.848;2022-10-16T07:25:46;15.20;99.90
37356;DHT22;48747;50.250;18.848;2022-10-16T07:29:55;15.30;99.90
37356;DHT22;48747;50.250;18.848;2022-10-16T07:32:01;15.50;99.90
37356;DHT22;48747;50.250;18.848;2022-10-16T07:34:24;15.50;99.90
37356;DHT22;48747;50.250;18.848;2022-10-16T07:55:28;15.90;99.90
37356;DHT22;48747;50.250;18.848;2022-10-16T15:57:27;17.20;99.90
37356;DHT22;48747;50.250;18.848;2022-10-16T15:59:14;17.10;99.90
37356;DHT22;48747;50.250;18.848;2022-10-16T16:03:34;17.00;99.90
37356;DHT22;48747;50.250;18.848;2022-10-16T16:05:53;17.00;99.90
37356;DHT22;48747;50.250;18.848;2022-10-16T16:07:58;16.90;99.90
37356;DHT22;48747;50.250;18.848;2022-10-16T16:10:20;16.80;99.90
37356;DHT22;48747;50.250;18.848;2022-10-16T16:12:06;16.80;99.90
37356;DHT22;48747;50.250;18.848;2022-10-16T16:16:26;16.60;99.90
37356;DHT22;48747;50.250;18.848;2022-10-16T16:20:47;16.60;99.90
37356;DHT22;48747;50.250;18.848;2022-10-16T16:22:54;16.50;99.90
37356;DHT22;48747;50.250;18.848;2022-10-16T16:25:05;16.50;99.90
37356;DHT22;48747;50.250;18.848;2022-10-16T16:27:34;16.40;99.90
37356;DHT22;48747;50.250;18.848;2022-10-16T16:29:36;16.40;99.90
37356;DHT22;48747;50.250;18.848;2022-10-16T16:31:49;16.40;99.90
37356;DHT22;48747;50.250;18.848;2022-10-16T16:33:47;16.30;99.90
37356;DHT22;48747;50.250;18.848;2022-10-16T16:38:12;16.10;99.90
37356;DHT22;48747;50.250;18.848;2022-10-16T16:40:28;16.00;99.90
37356;DHT22;48747;50.250;18.848;2022-10-16T16:42:52;16.00;99.90
37356;DHT22;48747;50.250;18.848;2022-10-16T16:44:39;15.90;99.90
37356;DHT22;48747;50.250;18.848;2022-10-16T16:46:55;15.90;99.90
37356;DHT22;48747;50.250;18.848;2022-10-16T16:48:53;15.80;99.90
37356;DHT22;48747;50.250;18.848;2022-10-16T16:51:02;15.80;99.90
37356;DHT22;48747;50.250;18.848;2022-10-16T16:53:06;15.70;99.90
37356;DHT22;48747;50.250;18.848;2022-10-16T16:55:20;15.70;99.90
37356;DHT22;48747;50.250;18.848;2022-10-16T16:57:18;15.60;99.90
37356;DHT22;48747;50.250;18.848;2022-10-16T16:59:25;15.60;99.90
37356;DHT22;48747;50.250;18.848;2022-10-16T17:01:33;15.60;99.90
37356;DHT22;48747;50.250;18.848;2022-10-16T17:03:35;15.50;99.90
37356;DHT22;48747;50.250;18.848;2022-10-16T17:07:59;15.50;99.90
37356;DHT22;48747;50.250;18.848;2022-10-16T17:12:32;15.50;99.90
37356;DHT22;48747;50.250;18.848;2022-10-16T17:15:11;15.50;99.90
37356;DHT22;48747;50.250;18.848;2022-10-16T17:43:27;15.30;99.90
37356;DHT22;48747;50.250;18.848;2022-10-16T17:45:56;15.30;99.90
37356;DHT22;48747;50.250;18.848;2022-10-16T17:53:32;15.30;99.90
37356;DHT22;48747;50.250;18.848;2022-10-16T17:55:43;15.30;99.90
37356;DHT22;48747;50.250;18.848;2022-10-16T17:58:05;15.30;99.90
37356;DHT22;48747;50.250;18.848;2022-10-16T18:00:10;15.20;99.90
37356;DHT22;48747;50.250;18.848;2022-10-16T18:04:51;15.20;99.90
37356;DHT22;48747;50.250;18.848;2022-10-16T18:06:55;15.30;99.90
37356;DHT22;48747;50.250;18.848;2022-10-16T18:09:16;15.40;99.90
37356;DHT22;48747;50.250;18.848;2022-10-16T18:11:05;15.30;99.90
37356;DHT22;48747;50.250;18.848;2022-10-16T18:13:10;15.30;99.90
37356;DHT22;48747;50.250;18.848;2022-10-16T18:15:14;15.30;99.90
37356;DHT22;48747;50.250;18.848;2022-10-16T18:17:23;15.30;99.90
37356;DHT22;48747;50.250;18.848;2022-10-16T18:19:28;15.40;99.90
37356;DHT22;48747;50.250;18.848;2022-10-16T18:21:31;15.30;99.90
37356;DHT22;48747;50.250;18.848;2022-10-16T18:25:50;15.30;99.90
37356;DHT22;48747;50.250;18.848;2022-10-16T18:27:59;15.30;99.90
37356;DHT22;48747;50.250;18.848;2022-10-16T18:30:04;15.20;99.90
37356;DHT22;48747;50.250;18.848;2022-10-16T18:32:14;15.10;99.90
37356;DHT22;48747;50.250;18.848;2022-10-16T18:34:15;15.00;99.90
37356;DHT22;48747;50.250;18.848;2022-10-16T18:36:22;15.00;99.90
37356;DHT22;48747;50.250;18.848;2022-10-16T18:38:28;15.00;99.90
37356;DHT22;48747;50.250;18.848;2022-10-16T18:40:46;15.00;99.90
37356;DHT22;48747;50.250;18.848;2022-10-16T18:42:37;15.00;99.90
37356;DHT22;48747;50.250;18.848;2022-10-16T18:44:48;15.00;99.90
37356;DHT22;48747;50.250;18.848;2022-10-16T18:47:00;15.00;99.90
37356;DHT22;48747;50.250;18.848;2022-10-16T18:49:00;15.00;99.90
37356;DHT22;48747;50.250;18.848;2022-10-16T18:51:18;15.00;99.90
37356;DHT22;48747;50.250;18.848;2022-10-16T18:55:37;15.10;99.90
37356;DHT22;48747;50.250;18.848;2022-10-16T18:57:58;15.10;99.90
37356;DHT22;48747;50.250;18.848;2022-10-16T18:59:52;15.10;99.90
37356;DHT22;48747;50.250;18.848;2022-10-16T19:02:11;15.00;99.90
37356;DHT22;48747;50.250;18.848;2022-10-16T19:06:23;15.00;99.90
37356;DHT22;48747;50.250;18.848;2022-10-16T19:08:26;15.00;99.90
37356;DHT22;48747;50.250;18.848;2022-10-16T19:10:31;14.90;99.90
37356;DHT22;48747;50.250;18.848;2022-10-16T19:12:38;14.90;99.90
37356;DHT22;48747;50.250;18.848;2022-10-16T19:14:42;14.90;99.90
37356;DHT22;48747;50.250;18.848;2022-10-16T19:18:58;14.90;99.90
37356;DHT22;48747;50.250;18.848;2022-10-16T19:21:06;14.80;99.90
37356;DHT22;48747;50.250;18.848;2022-10-16T19:23:11;14.90;99.90
37356;DHT22;48747;50.250;18.848;2022-10-16T19:25:17;14.90;99.90
37356;DHT22;48747;50.250;18.848;2022-10-16T19:27:22;14.90;99.90
37356;DHT22;48747;50.250;18.848;2022-10-16T19:29:43;14.90;99.90
37356;DHT22;48747;50.250;18.848;2022-10-16T19:31:52;14.80;99.90
37356;DHT22;48747;50.250;18.848;2022-10-16T19:41:36;14.60;99.90
37356;DHT22;48747;50.250;18.848;2022-10-16T19:43:45;14.50;99.90
37356;DHT22;48747;50.250;18.848;2022-10-16T19:48:12;14.50;99.90
37356;DHT22;48747;50.250;18.848;2022-10-16T19:50:24;14.40;99.90
37356;DHT22;48747;50.250;18.848;2022-10-16T19:52:28;14.40;99.90
37356;DHT22;48747;50.250;18.848;2022-10-16T19:59:00;14.30;99.90
37356;DHT22;48747;50.250;18.848;2022-10-16T20:01:05;14.20;99.90
37356;DHT22;48747;50.250;18.848;2022-10-16T20:05:20;14.10;99.90
37356;DHT22;48747;50.250;18.848;2022-10-16T20:10:01;14.20;99.90
37356;DHT22;48747;50.250;18.848;2022-10-16T20:12:06;14.10;99.90
37356;DHT22;48747;50.250;18.848;2022-10-16T20:14:09;14.10;99.90
37356;DHT22;48747;50.250;18.848;2022-10-16T20:16:19;14.20;99.90
37356;DHT22;48747;50.250;18.848;2022-10-16T20:20:48;14.10;99.90
37356;DHT22;48747;50.250;18.848;2022-10-16T20:23:12;14.10;99.90
37356;DHT22;48747;50.250;18.848;2022-10-16T20:31:17;13.90;99.90
37356;DHT22;48747;50.250;18.848;2022-10-16T20:33:23;13.90;99.90
37356;DHT22;48747;50.250;18.848;2022-10-16T20:35:51;13.80;99.90
37356;DHT22;48747;50.250;18.848;2022-10-16T20:37:47;13.80;99.90
37356;DHT22;48747;50.250;18.848;2022-10-16T20:39:45;13.80;99.90
37356;DHT22;48747;50.250;18.848;2022-10-16T20:41:51;13.80;99.90
37356;DHT22;48747;50.250;18.848;2022-10-16T20:43:58;13.70;99.90
37356;DHT22;48747;50.250;18.848;2022-10-16T20:46:03;13.70;99.90
37356;DHT22;48747;50.250;18.848;2022-10-16T20:48:12;13.70;99.90
37356;DHT22;48747;50.250;18.848;2022-10-16T20:50:19;13.70;99.90
37356;DHT22;48747;50.250;18.848;2022-10-16T20:52:30;13.60;99.90
37356;DHT22;48747;50.250;18.848;2022-10-16T20:54:30;13.60;99.90
37356;DHT22;48747;50.250;18.848;2022-10-16T20:56:38;13.60;99.90
37356;DHT22;48747;50.250;18.848;2022-10-16T20:58:45;13.60;99.90
37356;DHT22;48747;50.250;18.848;2022-10-16T21:00:49;13.60;99.90
37356;DHT22;48747;50.250;18.848;2022-10-16T21:02:52;13.50;99.90
37356;DHT22;48747;50.250;18.848;2022-10-16T21:05:06;13.50;99.90
37356;DHT22;48747;50.250;18.848;2022-10-16T21:07:04;13.50;99.90
37356;DHT22;48747;50.250;18.848;2022-10-16T21:09:24;13.40;99.90
37356;DHT22;48747;50.250;18.848;2022-10-16T21:11:19;13.40;99.90
37356;DHT22;48747;50.250;18.848;2022-10-16T21:13:22;13.40;99.90
37356;DHT22;48747;50.250;18.848;2022-10-16T21:15:29;13.40;99.90
37356;DHT22;48747;50.250;18.848;2022-10-16T21:17:36;13.30;99.90
37356;DHT22;48747;50.250;18.848;2022-10-16T21:19:47;13.20;99.90
37356;DHT22;48747;50.250;18.848;2022-10-16T21:21:55;13.30;99.90
37356;DHT22;48747;50.250;18.848;2022-10-16T21:23:58;13.20;99.90
37356;DHT22;48747;50.250;18.848;2022-10-16T21:26:07;13.20;99.90
37356;DHT22;48747;50.250;18.848;2022-10-16T21:28:13;13.10;99.90
37356;DHT22;48747;50.250;18.848;2022-10-16T21:30:26;13.20;99.90
37356;DHT22;48747;50.250;18.848;2022-10-16T21:32:27;13.20;99.90
37356;DHT22;48747;50.250;18.848;2022-10-16T21:34:30;13.20;99.90
37356;DHT22;48747;50.250;18.848;2022-10-16T21:36:38;13.20;99.90
37356;DHT22;48747;50.250;18.848;2022-10-16T21:38:53;13.30;99.90
37356;DHT22;48747;50.250;18.848;2022-10-16T21:40:54;13.30;99.90
37356;DHT22;48747;50.250;18.848;2022-10-16T21:43:01;13.30;99.90
37356;DHT22;48747;50.250;18.848;2022-10-16T21:45:03;13.30;99.90
37356;DHT22;48747;50.250;18.848;2022-10-16T21:47:21;13.30;99.90
37356;DHT22;48747;50.250;18.848;2022-10-16T21:49:20;13.20;99.90
37356;DHT22;48747;50.250;18.848;2022-10-16T21:53:34;13.20;99.90
37356;DHT22;48747;50.250;18.848;2022-10-16T21:55:41;13.20;99.90
37356;DHT22;48747;50.250;18.848;2022-10-16T21:57:58;13.10;99.90
37356;DHT22;48747;50.250;18.848;2022-10-16T22:02:02;13.10;99.90
37356;DHT22;48747;50.250;18.848;2022-10-16T22:04:09;13.00;99.90
37356;DHT22;48747;50.250;18.848;2022-10-16T22:06:19;13.00;99.90
37356;DHT22;48747;50.250;18.848;2022-10-16T22:08:25;13.00;99.90
37356;DHT22;48747;50.250;18.848;2022-10-16T22:10:35;13.00;99.90
37356;DHT22;48747;50.250;18.848;2022-10-16T22:12:43;13.00;99.90
37356;DHT22;48747;50.250;18.848;2022-10-16T22:14:51;13.00;99.90
37356;DHT22;48747;50.250;18.848;2022-10-16T22:16:56;13.00;99.90
37356;DHT22;48747;50.250;18.848;2022-10-16T22:19:00;13.00;99.90
37356;DHT22;48747;50.250;18.848;2022-10-16T22:21:07;13.10;99.90
37356;DHT22;48747;50.250;18.848;2022-10-16T22:23:15;13.10;99.90
37356;DHT22;48747;50.250;18.848;2022-10-16T22:25:20;13.20;99.90
37356;DHT22;48747;50.250;18.848;2022-10-16T22:27:25;13.10;99.90
37356;DHT22;48747;50.250;18.848;2022-10-16T22:29:28;13.20;99.90
37356;DHT22;48747;50.250;18.848;2022-10-16T22:31:43;13.20;99.90
37356;DHT22;48747;50.250;18.848;2022-10-16T22:33:45;13.20;99.90
37356;DHT22;48747;50.250;18.848;2022-10-16T22:35:59;13.20;99.90
37356;DHT22;48747;50.250;18.848;2022-10-16T22:38:15;13.20;99.90
37356;DHT22;48747;50.250;18.848;2022-10-16T22:40:09;13.20;99.90
37356;DHT22;48747;50.250;18.848;2022-10-16T22:42:16;13.20;99.90
37356;DHT22;48747;50.250;18.848;2022-10-16T22:44:24;13.20;99.90
37356;DHT22;48747;50.250;18.848;2022-10-16T22:46:33;13.10;99.90
37356;DHT22;48747;50.250;18.848;2022-10-16T22:48:41;13.10;99.90
37356;DHT22;48747;50.250;18.848;2022-10-16T22:50:46;13.10;99.90
37356;DHT22;48747;50.250;18.848;2022-10-16T22:52:53;13.10;99.90
37356;DHT22;48747;50.250;18.848;2022-10-16T22:55:00;13.10;99.90
37356;DHT22;48747;50.250;18.848;2022-10-16T22:57:01;13.10;99.90
37356;DHT22;48747;50.250;18.848;2022-10-16T22:59:08;13.00;99.90
37356;DHT22;48747;50.250;18.848;2022-10-16T23:01:23;12.90;99.90
37356;DHT22;48747;50.250;18.848;2022-10-16T23:03:25;12.90;99.90
37356;DHT22;48747;50.250;18.848;2022-10-16T23:05:32;12.90;99.90
37356;DHT22;48747;50.250;18.848;2022-10-16T23:07:46;12.80;99.90
37356;DHT22;48747;50.250;18.848;2022-10-16T23:09:47;12.80;99.90
37356;DHT22;48747;50.250;18.848;2022-10-16T23:11:52;12.70;99.90
37356;DHT22;48747;50.250;18.848;2022-10-16T23:13:57;12.70;99.90
37356;DHT22;48747;50.250;18.848;2022-10-16T23:16:05;12.60;99.90
37356;DHT22;48747;50.250;18.848;2022-10-16T23:18:08;12.60;99.90
37356;DHT22;48747;50.250;18.848;2022-10-16T23:20:14;12.60;99.90
37356;DHT22;48747;50.250;18.848;2022-10-16T23:22:18;12.70;99.90
37356;DHT22;48747;50.250;18.848;2022-10-16T23:24:23;12.70;99.90
37356;DHT22;48747;50.250;18.848;2022-10-16T23:26:35;12.70;99.90
37356;DHT22;48747;50.250;18.848;2022-10-16T23:28:41;12.70;99.90
37356;DHT22;48747;50.250;18.848;2022-10-16T23:30:42;12.70;99.90
37356;DHT22;48747;50.250;18.848;2022-10-16T23:32:45;12.70;99.90
37356;DHT22;48747;50.250;18.848;2022-10-16T23:34:56;12.70;99.90
37356;DHT22;48747;50.250;18.848;2022-10-16T23:36:55;12.70;99.90
37356;DHT22;48747;50.250;18.848;2022-10-16T23:39:02;12.70;99.90
37356;DHT22;48747;50.250;18.848;2022-10-16T23:41:12;12.70;99.90
37356;DHT22;48747;50.250;18.848;2022-10-16T23:43:22;12.70;99.90
37356;DHT22;48747;50.250;18.848;2022-10-16T23:45:22;12.60;99.90
37356;DHT22;48747;50.250;18.848;2022-10-16T23:47:27;12.60;99.90
37356;DHT22;48747;50.250;18.848;2022-10-16T23:49:36;12.60;99.90
37356;DHT22;48747;50.250;18.848;2022-10-16T23:51:36;12.70;99.90
37356;DHT22;48747;50.250;18.848;2022-10-16T23:53:42;12.60;99.90
37356;DHT22;48747;50.250;18.848;2022-10-16T23:55:46;12.60;99.90
37356;DHT22;48747;50.250;18.848;2022-10-16T23:57:50;12.60;99.90
37356;DHT22;48747;50.250;18.848;2022-10-16T23:59:58;12.60;99.90
